Aviation Digital Data Service (ADDS)

Output produced by METARs form (0818 UTC 19 April 2019)
found at http://www.aviationweather.gov/metar/data/
 
METAR text: WIPP 190800Z 33005KT 9999 FEW011CB 33/23 Q1005 RMK CB TO E
Conditions at: WIPP (PALEMBANG/SULTAN, ID) observed 0800 UTC 19 April 2019
Temperature: 33.0°C (91°F)
Dewpoint: 23.0°C (73°F) [RH = 56%]
Pressure (altimeter): 29.68 inches Hg (1005.0 mb)
Winds: from the NNW (330 degrees) at 6 MPH (5 knots; 2.6 m/s)
Visibility: 6 or more miles (10+ km)
Ceiling: at least 12,000 feet AGL
Clouds: few clouds at 1100 feet AGL
Weather: no significant weather observed at this time

METAR text: WIPP 190730Z 30006KT 9999 FEW011CB 32/24 Q1005 RMK CB TO NE
Conditions at: WIPP (PALEMBANG/SULTAN, ID) observed 0730 UTC 19 April 2019
Temperature: 32.0°C (90°F)
Dewpoint: 24.0°C (75°F) [RH = 63%]
Pressure (altimeter): 29.68 inches Hg (1005.0 mb)
Winds: from the WNW (300 degrees) at 7 MPH (6 knots; 3.1 m/s)
Visibility: 6 or more miles (10+ km)
Ceiling: at least 12,000 feet AGL
Clouds: few clouds at 1100 feet AGL
Weather: no significant weather observed at this time

METAR text: WIPP 190700Z 31003KT 9999 FEW010 32/24 Q1006 NOSIG
Conditions at: WIPP (PALEMBANG/SULTAN, ID) observed 0700 UTC 19 April 2019
Temperature: 32.0°C (90°F)
Dewpoint: 24.0°C (75°F) [RH = 63%]
Pressure (altimeter): 29.70 inches Hg (1006.0 mb)
Winds: from the NW (310 degrees) at 3 MPH (3 knots; 1.5 m/s)
Visibility: 6 or more miles (10+ km)
Ceiling: at least 12,000 feet AGL
Clouds: few clouds at 1000 feet AGL
Weather: no significant weather observed at this time

METAR text: WIPP 190630Z 25003KT 9999 FEW010 32/25 Q1007
Conditions at: WIPP (PALEMBANG/SULTAN, ID) observed 0630 UTC 19 April 2019
Temperature: 32.0°C (90°F)
Dewpoint: 25.0°C (77°F) [RH = 67%]
Pressure (altimeter): 29.73 inches Hg (1007.0 mb)
Winds: from the WSW (250 degrees) at 3 MPH (3 knots; 1.5 m/s)
Visibility: 6 or more miles (10+ km)
Ceiling: at least 12,000 feet AGL
Clouds: few clouds at 1000 feet AGL
Weather: no significant weather observed at this time

METAR text: WIPP 190600Z 20005KT 9999 FEW010 32/25 Q1007
Conditions at: WIPP (PALEMBANG/SULTAN, ID) observed 0600 UTC 19 April 2019
Temperature: 32.0°C (90°F)
Dewpoint: 25.0°C (77°F) [RH = 67%]
Pressure (altimeter): 29.73 inches Hg (1007.0 mb)
Winds: from the SSW (200 degrees) at 6 MPH (5 knots; 2.6 m/s)
Visibility: 6 or more miles (10+ km)
Ceiling: at least 12,000 feet AGL
Clouds: few clouds at 1000 feet AGL
Weather: no significant weather observed at this time

METAR text: WIPP 190530Z 31004KT 9999 SCT010 31/26 Q1008
Conditions at: WIPP (PALEMBANG/SULTAN, ID) observed 0530 UTC 19 April 2019
Temperature: 31.0°C (88°F)
Dewpoint: 26.0°C (79°F) [RH = 75%]
Pressure (altimeter): 29.76 inches Hg (1008.0 mb)
Winds: from the NW (310 degrees) at 5 MPH (4 knots; 2.1 m/s)
Visibility: 6 or more miles (10+ km)
Ceiling: at least 12,000 feet AGL
Clouds: scattered clouds at 1000 feet AGL
Weather: no significant weather observed at this time

METAR text: WIPP 190500Z 31005KT 9999 SCT010 31/25 Q1008
Conditions at: WIPP (PALEMBANG/SULTAN, ID) observed 0500 UTC 19 April 2019
Temperature: 31.0°C (88°F)
Dewpoint: 25.0°C (77°F) [RH = 71%]
Pressure (altimeter): 29.76 inches Hg (1008.0 mb)
Winds: from the NW (310 degrees) at 6 MPH (5 knots; 2.6 m/s)
Visibility: 6 or more miles (10+ km)
Ceiling: at least 12,000 feet AGL
Clouds: scattered clouds at 1000 feet AGL
Weather: no significant weather observed at this time

METAR text: WIPP 190430Z 30005KT 9999 SCT010 30/25 Q1009
Conditions at: WIPP (PALEMBANG/SULTAN, ID) observed 0430 UTC 19 April 2019
Temperature: 30.0°C (86°F)
Dewpoint: 25.0°C (77°F) [RH = 75%]
Pressure (altimeter): 29.79 inches Hg (1009.0 mb)
Winds: from the WNW (300 degrees) at 6 MPH (5 knots; 2.6 m/s)
Visibility: 6 or more miles (10+ km)
Ceiling: at least 12,000 feet AGL
Clouds: scattered clouds at 1000 feet AGL
Weather: no significant weather observed at this time

METAR text: WIPP 190400Z 17003KT 9999 SCT010 30/25 Q1010
Conditions at: WIPP (PALEMBANG/SULTAN, ID) observed 0400 UTC 19 April 2019
Temperature: 30.0°C (86°F)
Dewpoint: 25.0°C (77°F) [RH = 75%]
Pressure (altimeter): 29.82 inches Hg (1010.0 mb)
Winds: from the S (170 degrees) at 3 MPH (3 knots; 1.5 m/s)
Visibility: 6 or more miles (10+ km)
Ceiling: at least 12,000 feet AGL
Clouds: scattered clouds at 1000 feet AGL
Weather: no significant weather observed at this time

METAR text: WIPP 190330Z 32003KT 9999 FEW010 29/25 Q1010
Conditions at: WIPP (PALEMBANG/SULTAN, ID) observed 0330 UTC 19 April 2019
Temperature: 29.0°C (84°F)
Dewpoint: 25.0°C (77°F) [RH = 79%]
Pressure (altimeter): 29.82 inches Hg (1010.0 mb)
Winds: from the NW (320 degrees) at 3 MPH (3 knots; 1.5 m/s)
Visibility: 6 or more miles (10+ km)
Ceiling: at least 12,000 feet AGL
Clouds: few clouds at 1000 feet AGL
Weather: no significant weather observed at this time

METAR text: WIPP 190300Z 28001KT 9999 FEW010 28/26 Q1010
Conditions at: WIPP (PALEMBANG/SULTAN, ID) observed 0300 UTC 19 April 2019
Temperature: 28.0°C (82°F)
Dewpoint: 26.0°C (79°F) [RH = 89%]
Pressure (altimeter): 29.82 inches Hg (1010.0 mb)
Winds: from the W (280 degrees) at 1 MPH (1 knots; 0.5 m/s)
Visibility: 6 or more miles (10+ km)
Ceiling: at least 12,000 feet AGL
Clouds: few clouds at 1000 feet AGL
Weather: no significant weather observed at this time

METAR text: WIPP 190230Z 22003KT 9999 SCT010 27/26 Q1010
Conditions at: WIPP (PALEMBANG/SULTAN, ID) observed 0230 UTC 19 April 2019
Temperature: 27.0°C (81°F)
Dewpoint: 26.0°C (79°F) [RH = 94%]
Pressure (altimeter): 29.82 inches Hg (1010.0 mb)
Winds: from the SW (220 degrees) at 3 MPH (3 knots; 1.5 m/s)
Visibility: 6 or more miles (10+ km)
Ceiling: at least 12,000 feet AGL
Clouds: scattered clouds at 1000 feet AGL
Weather: no significant weather observed at this time

METAR text: WIPP 190200Z 18002KT 8000 BKN010 26/25 Q1010
Conditions at: WIPP (PALEMBANG/SULTAN, ID) observed 0200 UTC 19 April 2019
Temperature: 26.0°C (79°F)
Dewpoint: 25.0°C (77°F) [RH = 94%]
Pressure (altimeter): 29.82 inches Hg (1010.0 mb)
Winds: from the S (180 degrees) at 2 MPH (2 knots; 1.0 m/s)
Visibility: 5 miles ( 8 km)
Ceiling: 1000 feet AGL
Clouds: broken clouds at 1000 feet AGL
Weather: no significant weather observed at this time

METAR text: WIPP 190130Z 26004KT 5000 HZ BKN010 26/25 Q1010
Conditions at: WIPP (PALEMBANG/SULTAN, ID) observed 0130 UTC 19 April 2019
Temperature: 26.0°C (79°F)
Dewpoint: 25.0°C (77°F) [RH = 94%]
Pressure (altimeter): 29.82 inches Hg (1010.0 mb)
Winds: from the W (260 degrees) at 5 MPH (4 knots; 2.1 m/s)
Visibility: 3 miles ( 5 km)
Ceiling: 1000 feet AGL
Clouds: broken clouds at 1000 feet AGL
Weather: HZ  (haze)

METAR text: WIPP 190100Z 24002KT 5000 HZ BKN010 25/25 Q1009
Conditions at: WIPP (PALEMBANG/SULTAN, ID) observed 0100 UTC 19 April 2019
Temperature: 25.0°C (77°F)
Dewpoint: 25.0°C (77°F) [RH = 100%]
Pressure (altimeter): 29.79 inches Hg (1009.0 mb)
Winds: from the WSW (240 degrees) at 2 MPH (2 knots; 1.0 m/s)
Visibility: 3 miles ( 5 km)
Ceiling: 1000 feet AGL
Clouds: broken clouds at 1000 feet AGL
Weather: HZ  (haze)

METAR text: WIPP 190030Z 00000KT 4000 BR SCT010 25/24 Q1009
Conditions at: WIPP (PALEMBANG/SULTAN, ID) observed 0030 UTC 19 April 2019
Temperature: 25.0°C (77°F)
Dewpoint: 24.0°C (75°F) [RH = 94%]
Pressure (altimeter): 29.79 inches Hg (1009.0 mb)
Winds: calm
Visibility: 2.49 miles (4.01 km)
Ceiling: at least 12,000 feet AGL
Clouds: scattered clouds at 1000 feet AGL
Weather: BR  (mist)

METAR text: WIPP 190000Z 24002KT 2000 BR BKN008 25/24 Q1008
Conditions at: WIPP (PALEMBANG/SULTAN, ID) observed 0000 UTC 19 April 2019
Temperature: 25.0°C (77°F)
Dewpoint: 24.0°C (75°F) [RH = 94%]
Pressure (altimeter): 29.76 inches Hg (1008.0 mb)
Winds: from the WSW (240 degrees) at 2 MPH (2 knots; 1.0 m/s)
Visibility: 1.24 miles (2.00 km)
Ceiling: 800 feet AGL
Clouds: broken clouds at 800 feet AGL
Weather: BR  (mist)

METAR text: WIPP 182330Z 28003KT 5000 BR BKN010 25/24 Q1008
Conditions at: WIPP (PALEMBANG/SULTAN, ID) observed 2330 UTC 18 April 2019
Temperature: 25.0°C (77°F)
Dewpoint: 24.0°C (75°F) [RH = 94%]
Pressure (altimeter): 29.76 inches Hg (1008.0 mb)
Winds: from the W (280 degrees) at 3 MPH (3 knots; 1.5 m/s)
Visibility: 3 miles ( 5 km)
Ceiling: 1000 feet AGL
Clouds: broken clouds at 1000 feet AGL
Weather: BR  (mist)

METAR text: WIPP 182300Z 26003KT 9999 BKN010 25/24 Q1008
Conditions at: WIPP (PALEMBANG/SULTAN, ID) observed 2300 UTC 18 April 2019
Temperature: 25.0°C (77°F)
Dewpoint: 24.0°C (75°F) [RH = 94%]
Pressure (altimeter): 29.76 inches Hg (1008.0 mb)
Winds: from the W (260 degrees) at 3 MPH (3 knots; 1.5 m/s)
Visibility: 6 or more miles (10+ km)
Ceiling: 1000 feet AGL
Clouds: broken clouds at 1000 feet AGL
Weather: no significant weather observed at this time

METAR text: WIPP 182230Z 31003KT 9999 SCT010 25/24 Q1008
Conditions at: WIPP (PALEMBANG/SULTAN, ID) observed 2230 UTC 18 April 2019
Temperature: 25.0°C (77°F)
Dewpoint: 24.0°C (75°F) [RH = 94%]
Pressure (altimeter): 29.76 inches Hg (1008.0 mb)
Winds: from the NW (310 degrees) at 3 MPH (3 knots; 1.5 m/s)
Visibility: 6 or more miles (10+ km)
Ceiling: at least 12,000 feet AGL
Clouds: scattered clouds at 1000 feet AGL
Weather: no significant weather observed at this time

METAR text: WIPP 182200Z 31006KT 9999 SCT010 25/24 Q1008
Conditions at: WIPP (PALEMBANG/SULTAN, ID) observed 2200 UTC 18 April 2019
Temperature: 25.0°C (77°F)
Dewpoint: 24.0°C (75°F) [RH = 94%]
Pressure (altimeter): 29.76 inches Hg (1008.0 mb)
Winds: from the NW (310 degrees) at 7 MPH (6 knots; 3.1 m/s)
Visibility: 6 or more miles (10+ km)
Ceiling: at least 12,000 feet AGL
Clouds: scattered clouds at 1000 feet AGL
Weather: no significant weather observed at this time

METAR text: WIPP 182100Z 35003KT 7000 FEW010 25/24 Q1009
Conditions at: WIPP (PALEMBANG/SULTAN, ID) observed 2100 UTC 18 April 2019
Temperature: 25.0°C (77°F)
Dewpoint: 24.0°C (75°F) [RH = 94%]
Pressure (altimeter): 29.79 inches Hg (1009.0 mb)
Winds: from the N (350 degrees) at 3 MPH (3 knots; 1.5 m/s)
Visibility: 4 miles ( 7 km)
Ceiling: at least 12,000 feet AGL
Clouds: few clouds at 1000 feet AGL
Weather: no significant weather observed at this time

METAR text: WIPP 181700Z AUTO 31004KT 8000NDV -RA NCD 25/25 Q1011
Conditions at: WIPP (PALEMBANG/SULTAN, ID) observed 1700 UTC 18 April 2019
Temperature: 25.0°C (77°F)
Dewpoint: 25.0°C (77°F) [RH = 100%]
Pressure (altimeter): 29.85 inches Hg (1011.0 mb)
Winds: from the NW (310 degrees) at 5 MPH (4 knots; 2.1 m/s)
Visibility: missing
Ceiling: at least 12,000 feet AGL
Clouds: sky clear below 12,000 feet AGL
Weather: -RA  (light rain)

METAR text: WIPP 181600Z 27004KT 6000 -RA FEW010 26/25 Q1011
Conditions at: WIPP (PALEMBANG/SULTAN, ID) observed 1600 UTC 18 April 2019
Temperature: 26.0°C (79°F)
Dewpoint: 25.0°C (77°F) [RH = 94%]
Pressure (altimeter): 29.85 inches Hg (1011.0 mb)
Winds: from the W (270 degrees) at 5 MPH (4 knots; 2.1 m/s)
Visibility: 4 miles ( 6 km)
Ceiling: at least 12,000 feet AGL
Clouds: few clouds at 1000 feet AGL
Weather: -RA  (light rain)

METAR text: WIPP 181530Z 00000KT 6000 -RA FEW010 26/25 Q1011
Conditions at: WIPP (PALEMBANG/SULTAN, ID) observed 1530 UTC 18 April 2019
Temperature: 26.0°C (79°F)
Dewpoint: 25.0°C (77°F) [RH = 94%]
Pressure (altimeter): 29.85 inches Hg (1011.0 mb)
Winds: calm
Visibility: 4 miles ( 6 km)
Ceiling: at least 12,000 feet AGL
Clouds: few clouds at 1000 feet AGL
Weather: -RA  (light rain)

METAR text: WIPP 181500Z 35003KT 8000 -RA FEW010 26/25 Q1011
Conditions at: WIPP (PALEMBANG/SULTAN, ID) observed 1500 UTC 18 April 2019
Temperature: 26.0°C (79°F)
Dewpoint: 25.0°C (77°F) [RH = 94%]
Pressure (altimeter): 29.85 inches Hg (1011.0 mb)
Winds: from the N (350 degrees) at 3 MPH (3 knots; 1.5 m/s)
Visibility: 5 miles ( 8 km)
Ceiling: at least 12,000 feet AGL
Clouds: few clouds at 1000 feet AGL
Weather: -RA  (light rain)

METAR text: WIPP 181300Z 15003KT 7000 -RA SCT010 26/26 Q1010
Conditions at: WIPP (PALEMBANG/SULTAN, ID) observed 1300 UTC 18 April 2019
Temperature: 26.0°C (79°F)
Dewpoint: 26.0°C (79°F) [RH = 100%]
Pressure (altimeter): 29.82 inches Hg (1010.0 mb)
Winds: from the SSE (150 degrees) at 3 MPH (3 knots; 1.5 m/s)
Visibility: 4 miles ( 7 km)
Ceiling: at least 12,000 feet AGL
Clouds: scattered clouds at 1000 feet AGL
Weather: -RA  (light rain)

METAR text: WIPP 181230Z 12003KT 8000 -RA BKN010 26/25 Q1009
Conditions at: WIPP (PALEMBANG/SULTAN, ID) observed 1230 UTC 18 April 2019
Temperature: 26.0°C (79°F)
Dewpoint: 25.0°C (77°F) [RH = 94%]
Pressure (altimeter): 29.79 inches Hg (1009.0 mb)
Winds: from the ESE (120 degrees) at 3 MPH (3 knots; 1.5 m/s)
Visibility: 5 miles ( 8 km)
Ceiling: 1000 feet AGL
Clouds: broken clouds at 1000 feet AGL
Weather: -RA  (light rain)

METAR text: WIPP 181200Z 15003KT 6000 -RA BKN010 26/25 Q1008
Conditions at: WIPP (PALEMBANG/SULTAN, ID) observed 1200 UTC 18 April 2019
Temperature: 26.0°C (79°F)
Dewpoint: 25.0°C (77°F) [RH = 94%]
Pressure (altimeter): 29.76 inches Hg (1008.0 mb)
Winds: from the SSE (150 degrees) at 3 MPH (3 knots; 1.5 m/s)
Visibility: 4 miles ( 6 km)
Ceiling: 1000 feet AGL
Clouds: broken clouds at 1000 feet AGL
Weather: -RA  (light rain)

METAR text: WIPP 181130Z 00000KT 4000 -RA BKN010 26/25 Q1008
Conditions at: WIPP (PALEMBANG/SULTAN, ID) observed 1130 UTC 18 April 2019
Temperature: 26.0°C (79°F)
Dewpoint: 25.0°C (77°F) [RH = 94%]
Pressure (altimeter): 29.76 inches Hg (1008.0 mb)
Winds: calm
Visibility: 2.49 miles (4.01 km)
Ceiling: 1000 feet AGL
Clouds: broken clouds at 1000 feet AGL
Weather: -RA  (light rain)

METAR text: WIPP 181100Z 00000KT 5000 -RA BKN010 26/25 Q1008
Conditions at: WIPP (PALEMBANG/SULTAN, ID) observed 1100 UTC 18 April 2019
Temperature: 26.0°C (79°F)
Dewpoint: 25.0°C (77°F) [RH = 94%]
Pressure (altimeter): 29.76 inches Hg (1008.0 mb)
Winds: calm
Visibility: 3 miles ( 5 km)
Ceiling: 1000 feet AGL
Clouds: broken clouds at 1000 feet AGL
Weather: -RA  (light rain)

METAR text: WIPP 181030Z 15005KT 8000 -RA FEW010CB BKN010 26/25 Q1008 RMKCB TO SW
Conditions at: WIPP (PALEMBANG/SULTAN, ID) observed 1030 UTC 18 April 2019
Temperature: 26.0°C (79°F)
Dewpoint: 25.0°C (77°F) [RH = 94%]
Pressure (altimeter): 29.76 inches Hg (1008.0 mb)
Winds: from the SSE (150 degrees) at 6 MPH (5 knots; 2.6 m/s)
Visibility: 5 miles ( 8 km)
Ceiling: 1000 feet AGL
Clouds: few clouds at 1000 feet AGL
broken clouds at 1000 feet AGL
Weather: -RA  (light rain)

METAR text: WIPP 181000Z 08008KT 8000 -TSRA FEW010CB BKN010 25/24 Q1008 RMKCB TO NE AND SW
Conditions at: WIPP (PALEMBANG/SULTAN, ID) observed 1000 UTC 18 April 2019
Temperature: 25.0°C (77°F)
Dewpoint: 24.0°C (75°F) [RH = 94%]
Pressure (altimeter): 29.76 inches Hg (1008.0 mb)
Winds: from the E (80 degrees) at 9 MPH (8 knots; 4.1 m/s)
Visibility: 5 miles ( 8 km)
Ceiling: 1000 feet AGL
Clouds: few clouds at 1000 feet AGL
broken clouds at 1000 feet AGL
Weather: -TSRA  (light rain associated with thunderstorm(s))

METAR text: WIPP 180930Z 10010G20KT 4000 RA FEW010CB BKN010 26/25 Q1008 RMKCB TO NE AND SW
Conditions at: WIPP (PALEMBANG/SULTAN, ID) observed 0930 UTC 18 April 2019
Temperature: 26.0°C (79°F)
Dewpoint: 25.0°C (77°F) [RH = 94%]
Pressure (altimeter): 29.76 inches Hg (1008.0 mb)
Winds: from the E (100 degrees) at 12 MPH (10 knots; 5.1 m/s)
gusting to 23 MPH (20 knots; 10.3 m/s)
Visibility: 2.49 miles (4.01 km)
Ceiling: 1000 feet AGL
Clouds: few clouds at 1000 feet AGL
broken clouds at 1000 feet AGL
Weather: RA  (moderate rain)

METAR text: WIPP 180900Z 09012KT 9999 FEW010CB BKN010 28/26 Q1007 RMK CB TOE AND S
Conditions at: WIPP (PALEMBANG/SULTAN, ID) observed 0900 UTC 18 April 2019
Temperature: 28.0°C (82°F)
Dewpoint: 26.0°C (79°F) [RH = 89%]
Pressure (altimeter): 29.73 inches Hg (1007.0 mb)
Winds: from the E (90 degrees) at 14 MPH (12 knots; 6.2 m/s)
Visibility: 6 or more miles (10+ km)
Ceiling: 1000 feet AGL
Clouds: few clouds at 1000 feet AGL
broken clouds at 1000 feet AGL
Weather: no significant weather observed at this time

METAR text: WIPP 180830Z 32008KT 8000 FEW010CB BKN010 29/26 Q1007 RMK RERA
Conditions at: WIPP (PALEMBANG/SULTAN, ID) observed 0830 UTC 18 April 2019
Temperature: 29.0°C (84°F)
Dewpoint: 26.0°C (79°F) [RH = 84%]
Pressure (altimeter): 29.73 inches Hg (1007.0 mb)
Winds: from the NW (320 degrees) at 9 MPH (8 knots; 4.1 m/s)
Visibility: 5 miles ( 8 km)
Ceiling: 1000 feet AGL
Clouds: few clouds at 1000 feet AGL
broken clouds at 1000 feet AGL
Weather: no significant weather observed at this time

METAR text: WIPP 180800Z 25005KT 8000 -RA FEW010CB BKN010 28/26 Q1006 RMKCB TO NW AND SE
Conditions at: WIPP (PALEMBANG/SULTAN, ID) observed 0800 UTC 18 April 2019
Temperature: 28.0°C (82°F)
Dewpoint: 26.0°C (79°F) [RH = 89%]
Pressure (altimeter): 29.70 inches Hg (1006.0 mb)
Winds: from the WSW (250 degrees) at 6 MPH (5 knots; 2.6 m/s)
Visibility: 5 miles ( 8 km)
Ceiling: 1000 feet AGL
Clouds: few clouds at 1000 feet AGL
broken clouds at 1000 feet AGL
Weather: -RA  (light rain)

METAR text: WIPP 180730Z 32008KT 5000 RA FEW010CB BKN010 27/25 Q1007 RMKCB TO SW AND SE
Conditions at: WIPP (PALEMBANG/SULTAN, ID) observed 0730 UTC 18 April 2019
Temperature: 27.0°C (81°F)
Dewpoint: 25.0°C (77°F) [RH = 89%]
Pressure (altimeter): 29.73 inches Hg (1007.0 mb)
Winds: from the NW (320 degrees) at 9 MPH (8 knots; 4.1 m/s)
Visibility: 3 miles ( 5 km)
Ceiling: 1000 feet AGL
Clouds: few clouds at 1000 feet AGL
broken clouds at 1000 feet AGL
Weather: RA  (moderate rain)

METAR text: WIPP 180700Z 07005KT 4000 RA FEW010CB BKN010 28/26 Q1007 RMKCB TO SW AND SE
Conditions at: WIPP (PALEMBANG/SULTAN, ID) observed 0700 UTC 18 April 2019
Temperature: 28.0°C (82°F)
Dewpoint: 26.0°C (79°F) [RH = 89%]
Pressure (altimeter): 29.73 inches Hg (1007.0 mb)
Winds: from the ENE (70 degrees) at 6 MPH (5 knots; 2.6 m/s)
Visibility: 2.49 miles (4.01 km)
Ceiling: 1000 feet AGL
Clouds: few clouds at 1000 feet AGL
broken clouds at 1000 feet AGL
Weather: RA  (moderate rain)

METAR text: WIPP 180630Z 28008KT 9999 SCT010 FEW011CB 31/26 Q1007 RMKCB TO SE
Conditions at: WIPP (PALEMBANG/SULTAN, ID) observed 0630 UTC 18 April 2019
Temperature: 31.0°C (88°F)
Dewpoint: 26.0°C (79°F) [RH = 75%]
Pressure (altimeter): 29.73 inches Hg (1007.0 mb)
Winds: from the W (280 degrees) at 9 MPH (8 knots; 4.1 m/s)
Visibility: 6 or more miles (10+ km)
Ceiling: at least 12,000 feet AGL
Clouds: scattered clouds at 1000 feet AGL
few clouds at 1100 feet AGL
Weather: no significant weather observed at this time

METAR text: WIPP 180600Z 25006KT 9999 SCT010 FEW011CB 33/25 Q1008 RMKCB TO SE
Conditions at: WIPP (PALEMBANG/SULTAN, ID) observed 0600 UTC 18 April 2019
Temperature: 33.0°C (91°F)
Dewpoint: 25.0°C (77°F) [RH = 63%]
Pressure (altimeter): 29.76 inches Hg (1008.0 mb)
Winds: from the WSW (250 degrees) at 7 MPH (6 knots; 3.1 m/s)
Visibility: 6 or more miles (10+ km)
Ceiling: at least 12,000 feet AGL
Clouds: scattered clouds at 1000 feet AGL
few clouds at 1100 feet AGL
Weather: no significant weather observed at this time

METAR text: WIPP 180530Z 21002KT 9999 SCT010 FEW011CB 32/26 Q1009 RMKCB TO SE
Conditions at: WIPP (PALEMBANG/SULTAN, ID) observed 0530 UTC 18 April 2019
Temperature: 32.0°C (90°F)
Dewpoint: 26.0°C (79°F) [RH = 71%]
Pressure (altimeter): 29.79 inches Hg (1009.0 mb)
Winds: from the SSW (210 degrees) at 2 MPH (2 knots; 1.0 m/s)
Visibility: 6 or more miles (10+ km)
Ceiling: at least 12,000 feet AGL
Clouds: scattered clouds at 1000 feet AGL
few clouds at 1100 feet AGL
Weather: no significant weather observed at this time

METAR text: WIPP 180500Z 22003KT 9999 SCT010 FEW011CB 31/25 Q1009 RMKCB TO SE
Conditions at: WIPP (PALEMBANG/SULTAN, ID) observed 0500 UTC 18 April 2019
Temperature: 31.0°C (88°F)
Dewpoint: 25.0°C (77°F) [RH = 71%]
Pressure (altimeter): 29.79 inches Hg (1009.0 mb)
Winds: from the SW (220 degrees) at 3 MPH (3 knots; 1.5 m/s)
Visibility: 6 or more miles (10+ km)
Ceiling: at least 12,000 feet AGL
Clouds: scattered clouds at 1000 feet AGL
few clouds at 1100 feet AGL
Weather: no significant weather observed at this time

METAR text: WIPP 180430Z 10004KT 9999 SCT010 FEW011CB 31/25 Q1010 RMK CB TOSE
Conditions at: WIPP (PALEMBANG/SULTAN, ID) observed 0430 UTC 18 April 2019
Temperature: 31.0°C (88°F)
Dewpoint: 25.0°C (77°F) [RH = 71%]
Pressure (altimeter): 29.82 inches Hg (1010.0 mb)
Winds: from the E (100 degrees) at 5 MPH (4 knots; 2.1 m/s)
Visibility: 6 or more miles (10+ km)
Ceiling: at least 12,000 feet AGL
Clouds: scattered clouds at 1000 feet AGL
few clouds at 1100 feet AGL
Weather: no significant weather observed at this time

METAR text: WIPP 180400Z 35002KT 9999 SCT010 31/25 Q1010 NOSIG
Conditions at: WIPP (PALEMBANG/SULTAN, ID) observed 0400 UTC 18 April 2019
Temperature: 31.0°C (88°F)
Dewpoint: 25.0°C (77°F) [RH = 71%]
Pressure (altimeter): 29.82 inches Hg (1010.0 mb)
Winds: from the N (350 degrees) at 2 MPH (2 knots; 1.0 m/s)
Visibility: 6 or more miles (10+ km)
Ceiling: at least 12,000 feet AGL
Clouds: scattered clouds at 1000 feet AGL
Weather: no significant weather observed at this time

METAR text: WIPP 180330Z 05003KT 9999 SCT010 31/26 Q1010 NOSIG
Conditions at: WIPP (PALEMBANG/SULTAN, ID) observed 0330 UTC 18 April 2019
Temperature: 31.0°C (88°F)
Dewpoint: 26.0°C (79°F) [RH = 75%]
Pressure (altimeter): 29.82 inches Hg (1010.0 mb)
Winds: from the NE (50 degrees) at 3 MPH (3 knots; 1.5 m/s)
Visibility: 6 or more miles (10+ km)
Ceiling: at least 12,000 feet AGL
Clouds: scattered clouds at 1000 feet AGL
Weather: no significant weather observed at this time

METAR text: WIPP 180300Z 13003KT 9999 SCT010 30/25 Q1011 NOSIG
Conditions at: WIPP (PALEMBANG/SULTAN, ID) observed 0300 UTC 18 April 2019
Temperature: 30.0°C (86°F)
Dewpoint: 25.0°C (77°F) [RH = 75%]
Pressure (altimeter): 29.85 inches Hg (1011.0 mb)
Winds: from the SE (130 degrees) at 3 MPH (3 knots; 1.5 m/s)
Visibility: 6 or more miles (10+ km)
Ceiling: at least 12,000 feet AGL
Clouds: scattered clouds at 1000 feet AGL
Weather: no significant weather observed at this time

METAR text: WIPP 180230Z 23002KT 9999 SCT010 30/25 Q1011 NOSIG
Conditions at: WIPP (PALEMBANG/SULTAN, ID) observed 0230 UTC 18 April 2019
Temperature: 30.0°C (86°F)
Dewpoint: 25.0°C (77°F) [RH = 75%]
Pressure (altimeter): 29.85 inches Hg (1011.0 mb)
Winds: from the SW (230 degrees) at 2 MPH (2 knots; 1.0 m/s)
Visibility: 6 or more miles (10+ km)
Ceiling: at least 12,000 feet AGL
Clouds: scattered clouds at 1000 feet AGL
Weather: no significant weather observed at this time

METAR text: WIPP 180200Z 14003KT 9999 SCT010 30/26 Q1011 NOSIG
Conditions at: WIPP (PALEMBANG/SULTAN, ID) observed 0200 UTC 18 April 2019
Temperature: 30.0°C (86°F)
Dewpoint: 26.0°C (79°F) [RH = 79%]
Pressure (altimeter): 29.85 inches Hg (1011.0 mb)
Winds: from the SE (140 degrees) at 3 MPH (3 knots; 1.5 m/s)
Visibility: 6 or more miles (10+ km)
Ceiling: at least 12,000 feet AGL
Clouds: scattered clouds at 1000 feet AGL
Weather: no significant weather observed at this time

METAR text: WIPP 180130Z 08003KT 9999 FEW010 29/26 Q1011 NOSIG
Conditions at: WIPP (PALEMBANG/SULTAN, ID) observed 0130 UTC 18 April 2019
Temperature: 29.0°C (84°F)
Dewpoint: 26.0°C (79°F) [RH = 84%]
Pressure (altimeter): 29.85 inches Hg (1011.0 mb)
Winds: from the E (80 degrees) at 3 MPH (3 knots; 1.5 m/s)
Visibility: 6 or more miles (10+ km)
Ceiling: at least 12,000 feet AGL
Clouds: few clouds at 1000 feet AGL
Weather: no significant weather observed at this time

METAR text: WIPP 180100Z 13002KT 9999 FEW010 28/26 Q1011 NOSIG
Conditions at: WIPP (PALEMBANG/SULTAN, ID) observed 0100 UTC 18 April 2019
Temperature: 28.0°C (82°F)
Dewpoint: 26.0°C (79°F) [RH = 89%]
Pressure (altimeter): 29.85 inches Hg (1011.0 mb)
Winds: from the SE (130 degrees) at 2 MPH (2 knots; 1.0 m/s)
Visibility: 6 or more miles (10+ km)
Ceiling: at least 12,000 feet AGL
Clouds: few clouds at 1000 feet AGL
Weather: no significant weather observed at this time

METAR text: WIPP 180030Z 12003KT 5000 HZ FEW010 28/26 Q1010 NOSIG
Conditions at: WIPP (PALEMBANG/SULTAN, ID) observed 0030 UTC 18 April 2019
Temperature: 28.0°C (82°F)
Dewpoint: 26.0°C (79°F) [RH = 89%]
Pressure (altimeter): 29.82 inches Hg (1010.0 mb)
Winds: from the ESE (120 degrees) at 3 MPH (3 knots; 1.5 m/s)
Visibility: 3 miles ( 5 km)
Ceiling: at least 12,000 feet AGL
Clouds: few clouds at 1000 feet AGL
Weather: HZ  (haze)

METAR text: WIPP 180000Z 00000KT 5000 HZ FEW010 27/26 Q1010 NOSIG
Conditions at: WIPP (PALEMBANG/SULTAN, ID) observed 0000 UTC 18 April 2019
Temperature: 27.0°C (81°F)
Dewpoint: 26.0°C (79°F) [RH = 94%]
Pressure (altimeter): 29.82 inches Hg (1010.0 mb)
Winds: calm
Visibility: 3 miles ( 5 km)
Ceiling: at least 12,000 feet AGL
Clouds: few clouds at 1000 feet AGL
Weather: HZ  (haze)

METAR text: WIPP 172330Z 10002KT 2000 BR FEW010 26/25 Q1009 NOSIG
Conditions at: WIPP (PALEMBANG/SULTAN, ID) observed 2330 UTC 17 April 2019
Temperature: 26.0°C (79°F)
Dewpoint: 25.0°C (77°F) [RH = 94%]
Pressure (altimeter): 29.79 inches Hg (1009.0 mb)
Winds: from the E (100 degrees) at 2 MPH (2 knots; 1.0 m/s)
Visibility: 1.24 miles (2.00 km)
Ceiling: at least 12,000 feet AGL
Clouds: few clouds at 1000 feet AGL
Weather: BR  (mist)

METAR text: WIPP 172300Z 20002KT 2000 BR FEW010 26/25 Q1009 NOSIG
Conditions at: WIPP (PALEMBANG/SULTAN, ID) observed 2300 UTC 17 April 2019
Temperature: 26.0°C (79°F)
Dewpoint: 25.0°C (77°F) [RH = 94%]
Pressure (altimeter): 29.79 inches Hg (1009.0 mb)
Winds: from the SSW (200 degrees) at 2 MPH (2 knots; 1.0 m/s)
Visibility: 1.24 miles (2.00 km)
Ceiling: at least 12,000 feet AGL
Clouds: few clouds at 1000 feet AGL
Weather: BR  (mist)

METAR text: WIPP 172230Z 00000KT 3000 BR FEW010 26/26 Q1009 NOSIG
Conditions at: WIPP (PALEMBANG/SULTAN, ID) observed 2230 UTC 17 April 2019
Temperature: 26.0°C (79°F)
Dewpoint: 26.0°C (79°F) [RH = 100%]
Pressure (altimeter): 29.79 inches Hg (1009.0 mb)
Winds: calm
Visibility: 1.86 miles (2.99 km)
Ceiling: at least 12,000 feet AGL
Clouds: few clouds at 1000 feet AGL
Weather: BR  (mist)

METAR text: WIPP 172200Z 00000KT 4000 BR FEW010 27/26 Q1008 NOSIG
Conditions at: WIPP (PALEMBANG/SULTAN, ID) observed 2200 UTC 17 April 2019
Temperature: 27.0°C (81°F)
Dewpoint: 26.0°C (79°F) [RH = 94%]
Pressure (altimeter): 29.76 inches Hg (1008.0 mb)
Winds: calm
Visibility: 2.49 miles (4.01 km)
Ceiling: at least 12,000 feet AGL
Clouds: few clouds at 1000 feet AGL
Weather: BR  (mist)

METAR text: WIPP 172130Z 29003KT 4000 BR FEW010 26/26 Q1008 NOSIG
Conditions at: WIPP (PALEMBANG/SULTAN, ID) observed 2130 UTC 17 April 2019
Temperature: 26.0°C (79°F)
Dewpoint: 26.0°C (79°F) [RH = 100%]
Pressure (altimeter): 29.76 inches Hg (1008.0 mb)
Winds: from the WNW (290 degrees) at 3 MPH (3 knots; 1.5 m/s)
Visibility: 2.49 miles (4.01 km)
Ceiling: at least 12,000 feet AGL
Clouds: few clouds at 1000 feet AGL
Weather: BR  (mist)

Forecast for: WIPP (PALEMBANG/SULTAN, ID)
Text: TAF WIPP 190500Z 1906/2006 VRB06KT 9999 SCT010
Forecast period: 0600 UTC 19 April 2019 to 0600 UTC 20 April 2019
Forecast type: FROM: standard forecast or significant change
Winds: variable direction winds at 7 MPH (6 knots; 3.1 m/s)
Visibility: 6 or more miles 10+ km)
Ceiling: at least 12,000 feet AGL
Clouds: scattered clouds at 1000 feet AGL
Weather: no significant weather forecast for this period
Text: TEMPO 1908/1912 4000 TSRA FEW010CB BKN010
Forecast period: 0800 to 1200 UTC 19 April 2019
Forecast type: TEMPORARY: The following changes expected for less than half the time period
Visibility: 2.49 miles (4.01 km)
Ceiling: 1000 feet AGL
Clouds: few clouds at 1000 feet AGL
broken clouds at 1000 feet AGL
Weather: TSRA  (rain associated with thunderstorm(s))
Text: TEMPO 1921/2001 2000 BR
Forecast period: 2100 UTC 19 April 2019 to 0100 UTC 20 April 2019
Forecast type: TEMPORARY: The following changes expected for less than half the time period
Visibility: 1.24 miles (2.00 km)
Ceiling: unknown
Clouds: missing
Weather: BR  (mist)